Time;durP1;ratioP1;P1;durP2;ratioP2;P2;SDS_P1;SDS_P2;PMS_P1;PMS_P2;Temp;Humidity;BMP_temperature;BMP_pressure;BME280_temperature;BME280_humidity;BME280_pressure;Samples;Min_cycle;Max_cycle;Signal;HPM_P1;HPM_P2
2020/12/24 00:02:10;;;;;;;209.02;117.35;;;17.20;62.40;;;;;;5034747;28;20103;-54
2020/12/24 00:04:35;;;;;;;211.25;113.43;;;17.20;62.40;;;;;;5034516;28;20073;-52
2020/12/24 00:07:01;;;;;;;205.70;114.22;;;17.20;62.30;;;;;;5034623;28;20480;-55
2020/12/24 00:09:26;;;;;;;206.43;113.18;;;17.10;62.30;;;;;;5034689;28;20057;-55
2020/12/24 00:11:55;;;;;;;210.52;109.03;;;17.20;62.40;;;;;;5034142;28;20087;-54
2020/12/24 00:14:21;;;;;;;208.57;110.53;;;17.20;62.10;;;;;;5034397;28;20083;-54
2020/12/24 00:16:46;;;;;;;201.35;109.68;;;17.30;62.10;;;;;;5034289;28;20525;-54
2020/12/24 00:19:12;;;;;;;192.65;109.25;;;17.30;62.00;;;;;;5034305;28;20136;-55
2020/12/24 00:21:38;;;;;;;195.77;106.75;;;17.30;62.00;;;;;;5034357;28;20032;-54
2020/12/24 00:24:04;;;;;;;195.68;105.85;;;17.40;62.10;;;;;;5034069;28;20061;-56
2020/12/24 00:26:30;;;;;;;201.93;109.88;;;17.40;62.20;;;;;;5034265;28;20034;-54
2020/12/24 00:28:56;;;;;;;191.18;104.70;;;17.40;62.00;;;;;;5034217;28;20087;-54
2020/12/24 00:31:22;;;;;;;192.80;103.85;;;17.40;61.90;;;;;;5034240;28;20061;-55
2020/12/24 00:33:48;;;;;;;190.43;102.05;;;17.40;61.90;;;;;;5034288;28;20064;-55
2020/12/24 00:36:14;;;;;;;186.10;102.30;;;17.30;61.90;;;;;;5034016;28;20033;-55
2020/12/24 00:38:39;;;;;;;177.32;101.63;;;17.20;61.90;;;;;;5033557;28;20037;-54
2020/12/24 00:41:07;;;;;;;178.20;99.05;;;17.20;62.60;;;;;;5034275;28;20033;-55
2020/12/24 00:43:32;;;;;;;182.43;101.85;;;17.20;62.80;;;;;;5034138;28;20029;-57
2020/12/24 00:45:58;;;;;;;183.85;101.07;;;17.10;62.90;;;;;;5033891;28;20033;-56
2020/12/24 00:48:24;;;;;;;179.75;95.55;;;17.10;63.00;;;;;;5033879;28;20033;-56
2020/12/24 00:50:49;;;;;;;179.93;99.25;;;17.10;63.50;;;;;;5033370;28;20029;-55
2020/12/24 00:53:15;;;;;;;160.43;93.20;;;17.00;63.20;;;;;;5033594;28;20076;-54
2020/12/24 00:55:41;;;;;;;167.30;94.50;;;17.00;63.50;;;;;;5034099;28;20060;-53
2020/12/24 00:58:06;;;;;;;170.80;94.85;;;17.00;63.50;;;;;;5033614;28;20091;-54
2020/12/24 01:00:32;;;;;;;168.98;94.97;;;17.00;63.60;;;;;;5033175;28;20025;-55
2020/12/24 01:02:57;;;;;;;168.95;92.38;;;16.90;63.50;;;;;;5033699;28;20037;-53
2020/12/24 01:05:23;;;;;;;175.40;96.38;;;17.00;63.90;;;;;;5033824;28;20036;-55
2020/12/24 01:07:48;;;;;;;168.23;94.82;;;16.90;63.80;;;;;;5033443;28;20485;-55
2020/12/24 01:10:15;;;;;;;163.52;91.95;;;16.90;63.70;;;;;;5033693;28;20021;-55
2020/12/24 01:12:40;;;;;;;163.60;89.32;;;16.90;63.80;;;;;;5033647;28;20032;-52
2020/12/24 01:15:08;;;;;;;166.35;89.55;;;16.90;63.90;;;;;;5033630;28;20025;-55
2020/12/24 01:17:34;;;;;;;174.40;93.15;;;16.90;63.70;;;;;;5033549;28;20026;-55
2020/12/24 01:19:59;;;;;;;158.65;88.78;;;17.00;63.60;;;;;;5033812;28;20046;-55
2020/12/24 01:22:25;;;;;;;153.68;84.57;;;17.00;63.50;;;;;;5033545;28;20033;-55
2020/12/24 01:24:50;;;;;;;149.98;85.50;;;17.10;63.60;;;;;;5033074;28;20037;-53
2020/12/24 01:27:16;;;;;;;156.30;84.78;;;17.00;63.40;;;;;;5033723;28;20026;-53
2020/12/24 01:29:41;;;;;;;150.43;83.15;;;17.10;63.40;;;;;;5033634;28;20043;-54
2020/12/24 01:32:07;;;;;;;148.25;81.05;;;17.10;63.50;;;;;;5033459;28;20032;-55
2020/12/24 01:34:33;;;;;;;144.73;82.50;;;17.10;63.20;;;;;;5033392;28;20095;-55
2020/12/24 01:37:02;;;;;;;147.57;81.22;;;17.10;63.20;;;;;;5033288;28;20021;-54
2020/12/24 01:39:29;;;;;;;149.40;82.28;;;17.10;63.20;;;;;;5033660;28;20029;-54
2020/12/24 01:41:54;;;;;;;138.07;77.43;;;17.10;63.30;;;;;;5033659;28;20061;-55
2020/12/24 01:44:20;;;;;;;150.30;82.20;;;17.00;63.30;;;;;;5033433;28;20462;-55
2020/12/24 01:46:48;;;;;;;141.55;77.50;;;17.00;63.30;;;;;;5033377;28;20028;-54
2020/12/24 01:49:14;;;;;;;142.38;81.28;;;16.90;63.50;;;;;;5033314;28;20083;-52
2020/12/24 01:51:51;;;;;;;134.63;77.05;;;16.80;63.90;;;;;;5033285;28;20516;-55
2020/12/24 01:54:18;;;;;;;129.10;75.10;;;16.90;64.10;;;;;;5033513;28;20034;-54
2020/12/24 01:56:45;;;;;;;132.85;73.28;;;16.90;64.20;;;;;;5033195;28;20025;-55
2020/12/24 01:59:15;;;;;;;131.85;73.05;;;16.80;64.40;;;;;;5033235;28;20033;-55
2020/12/24 02:01:45;;;;;;;140.38;78.78;;;16.80;64.30;;;;;;5032912;28;20037;-53
2020/12/24 02:04:12;;;;;;;133.90;74.63;;;16.80;64.50;;;;;;5033124;28;20049;-56
2020/12/24 02:06:40;;;;;;;134.82;77.20;;;16.80;64.40;;;;;;5033153;28;20115;-55
2020/12/24 02:09:05;;;;;;;136.60;72.57;;;16.80;64.40;;;;;;5032907;28;20152;-55
2020/12/24 02:11:31;;;;;;;136.30;73.88;;;16.80;64.20;;;;;;5034371;28;20116;-55
2020/12/24 02:13:57;;;;;;;132.40;73.93;;;16.80;64.20;;;;;;5019115;28;20037;-55
2020/12/24 02:16:22;;;;;;;122.15;69.25;;;16.90;64.10;;;;;;5036576;28;20036;-56
2020/12/24 02:18:48;;;;;;;127.97;70.00;;;17.00;64.00;;;;;;5036305;28;20369;-52
2020/12/24 02:21:14;;;;;;;126.30;69.72;;;17.10;63.80;;;;;;5036743;28;20029;-55
2020/12/24 02:23:40;;;;;;;130.27;72.07;;;17.30;63.20;;;;;;5036404;28;20076;-54
2020/12/24 02:26:05;;;;;;;120.82;65.40;;;17.40;62.60;;;;;;5036387;28;20033;-55
2020/12/24 02:28:31;;;;;;;122.63;67.00;;;17.60;61.70;;;;;;5036305;28;20112;-56
2020/12/24 02:30:57;;;;;;;120.88;65.57;;;17.90;60.90;;;;;;5036339;28;20107;-56
2020/12/24 02:33:23;;;;;;;115.03;66.03;;;18.10;60.30;;;;;;5036398;28;20068;-55
2020/12/24 02:35:48;;;;;;;113.03;63.83;;;18.20;60.40;;;;;;5036386;28;20061;-53
2020/12/24 02:38:14;;;;;;;111.63;64.03;;;18.10;60.50;;;;;;5036336;28;20480;-56
2020/12/24 02:40:40;;;;;;;119.00;65.50;;;18.00;60.50;;;;;;5036169;28;20033;-55
2020/12/24 02:43:06;;;;;;;114.90;62.83;;;17.90;60.80;;;;;;5036134;28;20041;-55
2020/12/24 02:45:31;;;;;;;113.15;65.03;;;17.90;61.80;;;;;;5035993;28;20026;-56
2020/12/24 02:47:57;;;;;;;106.55;63.15;;;17.80;61.10;;;;;;5036408;28;20483;-56
2020/12/24 02:50:23;;;;;;;112.20;60.95;;;17.80;61.30;;;;;;5035927;28;20034;-55
2020/12/24 02:52:48;;;;;;;104.18;57.92;;;17.80;61.50;;;;;;5036096;28;20103;-53
2020/12/24 02:55:14;;;;;;;108.13;62.78;;;17.80;61.50;;;;;;5035949;28;20104;-55
2020/12/24 02:57:40;;;;;;;98.43;58.78;;;17.70;61.50;;;;;;5036005;28;20030;-54
2020/12/24 03:00:08;;;;;;;102.95;57.38;;;17.70;61.60;;;;;;5035792;28;20036;-55
2020/12/24 03:02:33;;;;;;;99.03;55.95;;;17.70;61.60;;;;;;5036037;28;20025;-55
2020/12/24 03:04:59;;;;;;;102.90;58.90;;;17.70;61.80;;;;;;5035684;28;20025;-56
2020/12/24 03:07:24;;;;;;;104.25;58.83;;;17.70;61.90;;;;;;5035639;28;20144;-56
2020/12/24 03:09:50;;;;;;;98.82;56.10;;;17.60;61.80;;;;;;5035853;28;20096;-55
2020/12/24 03:12:16;;;;;;;99.65;55.90;;;17.60;62.00;;;;;;5035672;28;20025;-56
2020/12/24 03:14:41;;;;;;;92.25;53.78;;;17.60;62.10;;;;;;5036128;28;20040;-55
2020/12/24 03:17:07;;;;;;;97.38;53.33;;;17.60;62.10;;;;;;5036107;28;20056;-56
2020/12/24 03:19:32;;;;;;;97.80;55.40;;;17.60;62.30;;;;;;5035231;28;20057;-55
2020/12/24 03:21:58;;;;;;;90.60;53.10;;;17.50;62.30;;;;;;5034929;28;20037;-55
2020/12/24 03:24:24;;;;;;;95.75;54.38;;;17.50;62.30;;;;;;5035056;28;20041;-55
2020/12/24 03:26:50;;;;;;;94.60;52.95;;;17.50;62.50;;;;;;5035519;28;20036;-54
2020/12/24 03:29:16;;;;;;;92.65;53.65;;;17.60;62.40;;;;;;5035419;28;20036;-55
2020/12/24 03:31:41;;;;;;;87.55;51.00;;;17.70;62.30;;;;;;5035064;28;20484;-54
2020/12/24 03:34:07;;;;;;;94.25;54.17;;;17.60;62.40;;;;;;5035492;28;20033;-53
2020/12/24 03:36:32;;;;;;;98.13;52.63;;;17.60;62.30;;;;;;5035360;28;20025;-56
2020/12/24 03:38:58;;;;;;;93.95;51.58;;;17.70;62.50;;;;;;5035485;28;20036;-56
2020/12/24 03:41:24;;;;;;;91.03;51.95;;;17.60;62.40;;;;;;5035118;28;20048;-55
2020/12/24 03:43:49;;;;;;;91.03;49.63;;;17.70;62.20;;;;;;5035020;28;20033;-55
2020/12/24 03:46:15;;;;;;;90.15;49.75;;;17.60;62.00;;;;;;5034597;28;20021;-56
2020/12/24 03:48:40;;;;;;;86.05;49.97;;;17.70;62.20;;;;;;5035271;28;20072;-55
2020/12/24 03:51:06;;;;;;;82.63;49.88;;;17.60;62.30;;;;;;5035241;28;20351;-55
2020/12/24 03:53:32;;;;;;;93.05;50.72;;;17.50;62.40;;;;;;5034910;28;20436;-55
2020/12/24 03:55:58;;;;;;;84.53;49.53;;;17.50;62.60;;;;;;5034811;28;20029;-55
2020/12/24 03:58:24;;;;;;;87.70;49.55;;;17.40;62.70;;;;;;5034815;28;20026;-55
2020/12/24 04:00:49;;;;;;;84.00;48.95;;;17.40;62.80;;;;;;5034856;28;20036;-55
2020/12/24 04:03:15;;;;;;;80.85;47.47;;;17.40;62.90;;;;;;5034861;28;20500;-55
2020/12/24 04:05:40;;;;;;;83.10;47.22;;;17.40;63.10;;;;;;5034711;28;20073;-52
2020/12/24 04:08:06;;;;;;;82.03;47.10;;;17.40;63.20;;;;;;5034708;28;20029;-56
2020/12/24 04:10:32;;;;;;;76.53;46.47;;;17.40;63.30;;;;;;5034575;28;20495;-57
2020/12/24 04:12:57;;;;;;;79.07;45.90;;;17.30;63.20;;;;;;5034456;28;20036;-55
2020/12/24 04:15:23;;;;;;;85.22;47.53;;;17.30;63.30;;;;;;5034306;28;20033;-53
2020/12/24 04:17:48;;;;;;;79.32;46.53;;;17.30;63.40;;;;;;5034194;28;20033;-55
2020/12/24 04:20:15;;;;;;;73.55;45.00;;;17.30;64.10;;;;;;5034268;28;20071;-55
2020/12/24 04:22:41;;;;;;;81.88;43.45;;;17.20;63.40;;;;;;5034235;28;20450;-55
2020/12/24 04:25:06;;;;;;;78.13;44.28;;;17.20;63.60;;;;;;5034187;28;20509;-55
2020/12/24 04:27:32;;;;;;;77.97;45.20;;;17.20;63.50;;;;;;5034015;28;20022;-55
2020/12/24 04:29:58;;;;;;;73.07;41.38;;;17.20;63.50;;;;;;5034216;28;20028;-55
2020/12/24 04:32:23;;;;;;;78.03;43.25;;;17.20;63.40;;;;;;5034248;28;20025;-56
2020/12/24 04:34:49;;;;;;;71.30;42.65;;;17.30;63.50;;;;;;5033525;28;20029;-55
2020/12/24 04:37:17;;;;;;;77.32;42.92;;;17.20;63.50;;;;;;5034220;28;20022;-55
2020/12/24 04:39:44;;;;;;;71.97;42.90;;;17.20;64.30;;;;;;5034064;28;20028;-55
2020/12/24 04:42:11;;;;;;;73.22;41.30;;;17.20;63.60;;;;;;5033833;28;20033;-55
2020/12/24 04:44:37;;;;;;;76.78;41.90;;;17.20;63.70;;;;;;5033747;28;20362;-56
2020/12/24 04:47:03;;;;;;;68.53;42.83;;;17.20;63.80;;;;;;5034029;28;20033;-55
2020/12/24 04:49:31;;;;;;;71.72;41.53;;;17.20;63.80;;;;;;5033897;28;20117;-56
2020/12/24 04:51:56;;;;;;;69.70;39.38;;;17.30;63.40;;;;;;5033859;28;20470;-55
2020/12/24 04:54:22;;;;;;;68.93;38.85;;;17.30;63.00;;;;;;5033744;28;20031;-56
2020/12/24 04:56:48;;;;;;;68.60;41.08;;;17.30;63.00;;;;;;5033844;28;20378;-55
2020/12/24 04:59:18;;;;;;;67.25;38.15;;;17.30;63.20;;;;;;5033694;28;20466;-55
2020/12/24 05:01:48;;;;;;;66.97;39.22;;;17.20;63.30;;;;;;5033610;28;20025;-55
2020/12/24 05:04:16;;;;;;;68.53;39.88;;;17.20;63.50;;;;;;5033640;28;20033;-56
2020/12/24 05:06:42;;;;;;;69.68;38.58;;;17.20;63.80;;;;;;5033779;28;20034;-56
2020/12/24 05:09:09;;;;;;;68.75;39.10;;;17.20;63.80;;;;;;5033690;28;20374;-56
2020/12/24 05:11:36;;;;;;;64.72;36.75;;;17.20;63.60;;;;;;5033695;28;20021;-55
2020/12/24 05:14:21;;;;;;;63.78;35.75;;;17.30;64.30;;;;;;5033567;28;20045;-57
2020/12/24 05:17:20;;;;;;;65.13;36.33;;;17.30;63.50;;;;;;5033572;28;20026;-56
2020/12/24 05:20:03;;;;;;;60.35;36.60;;;17.50;63.20;;;;;;4990399;28;20046;-55
2020/12/24 05:22:28;;;;;;;65.85;35.50;;;17.50;62.80;;;;;;5033249;28;20544;-56
2020/12/24 05:25:20;;;;;;;60.22;34.08;;;17.70;62.60;;;;;;5033429;28;20069;-56
2020/12/24 05:27:58;;;;;;;58.47;34.50;;;17.80;62.20;;;;;;5033550;28;20029;-56
2020/12/24 05:30:27;;;;;;;59.15;34.15;;;17.90;61.70;;;;;;5033744;28;20048;-56
2020/12/24 05:32:53;;;;;;;62.75;34.15;;;18.00;61.40;;;;;;5033804;28;20025;-55
2020/12/24 05:35:23;;;;;;;59.17;34.40;;;18.20;60.90;;;;;;5033353;28;20374;-55
2020/12/24 05:37:50;;;;;;;54.40;32.97;;;18.20;60.50;;;;;;5033494;28;20040;-56
2020/12/24 05:40:18;;;;;;;60.92;33.28;;;18.30;60.40;;;;;;5033303;28;20545;-56
2020/12/24 05:42:59;;;;;;;54.25;32.30;;;18.50;60.00;;;;;;5033366;28;20021;-55
2020/12/24 05:45:29;;;;;;;57.25;32.90;;;18.70;59.60;;;;;;5034394;28;20508;-56
2020/12/24 05:48:07;;;;;;;52.97;32.05;;;18.80;59.20;;;;;;5037152;28;20369;-56
2020/12/24 05:50:34;;;;;;;51.42;31.38;;;19.00;59.00;;;;;;5037264;28;20026;-57
2020/12/24 05:53:23;;;;;;;54.03;32.80;;;19.00;58.90;;;;;;5036861;28;20478;-56
2020/12/24 05:55:49;;;;;;;55.85;32.53;;;19.10;58.60;;;;;;5037291;28;20079;-53
2020/12/24 05:58:16;;;;;;;46.70;29.63;;;19.10;58.50;;;;;;5037009;28;20439;-56
2020/12/24 06:00:43;;;;;;;49.38;29.80;;;19.20;58.30;;;;;;5036915;28;20379;-55
2020/12/24 06:03:08;;;;;;;51.65;31.17;;;19.20;58.10;;;;;;5036828;28;20037;-56
2020/12/24 06:06:00;;;;;;;56.58;31.98;;;19.30;58.30;;;;;;5036985;28;20022;-56
2020/12/24 06:08:29;;;;;;;48.97;28.65;;;19.30;58.20;;;;;;5036771;28;20026;-57
2020/12/24 06:11:09;;;;;;;52.20;29.83;;;19.30;58.10;;;;;;5036843;28;20022;-56
2020/12/24 06:13:43;;;;;;;52.05;29.63;;;19.30;58.20;;;;;;5036789;28;20052;-56
2020/12/24 06:16:10;;;;;;;45.80;26.92;;;19.30;58.30;;;;;;5036782;28;20049;-56
2020/12/24 06:18:39;;;;;;;42.00;27.38;;;19.30;58.40;;;;;;5036406;28;20030;-56
2020/12/24 06:21:12;;;;;;;46.22;27.15;;;19.20;58.50;;;;;;5036809;28;20037;-56
2020/12/24 06:23:38;;;;;;;50.20;28.80;;;19.10;58.60;;;;;;5036823;28;20116;-55
2020/12/24 06:26:06;;;;;;;42.47;27.45;;;19.10;58.70;;;;;;5036462;28;20056;-56
2020/12/24 06:28:33;;;;;;;44.78;27.13;;;19.10;58.80;;;;;;5036336;28;20017;-56
2020/12/24 06:31:00;;;;;;;43.20;26.80;;;19.10;58.90;;;;;;5036840;28;20026;-56
2020/12/24 06:33:28;;;;;;;48.80;27.17;;;19.10;59.00;;;;;;5036694;28;20029;-56
2020/12/24 06:35:54;;;;;;;45.15;25.63;;;19.00;59.00;;;;;;5036478;28;20492;-56
2020/12/24 06:38:46;;;;;;;42.20;25.25;;;19.00;59.20;;;;;;5036101;28;20029;-55
2020/12/24 06:41:22;;;;;;;41.40;25.50;;;18.90;59.20;;;;;;5036535;28;20038;-56
2020/12/24 06:43:48;;;;;;;43.63;25.40;;;18.90;59.50;;;;;;5036120;28;20080;-55
2020/12/24 06:46:14;;;;;;;44.75;26.05;;;19.10;59.30;;;;;;5035908;28;20084;-54
2020/12/24 06:48:40;;;;;;;46.83;25.83;;;19.10;58.70;;;;;;5035873;28;20025;-55
2020/12/24 06:51:05;;;;;;;41.50;23.08;;;19.20;58.70;;;;;;5036132;28;20021;-56
2020/12/24 06:53:40;;;;;;;40.20;26.05;;;19.20;58.70;;;;;;5036011;28;20083;-56
2020/12/24 06:56:15;;;;;;;41.45;24.67;;;19.20;59.00;;;;;;5036498;28;20359;-57
2020/12/24 06:58:42;;;;;;;44.92;25.52;;;19.10;59.10;;;;;;5035235;28;20382;-55
2020/12/24 07:01:37;;;;;;;40.00;23.67;;;18.90;59.40;;;;;;5035701;28;20121;-56
2020/12/24 07:04:04;;;;;;;39.78;23.73;;;18.80;59.60;;;;;;5033497;28;20045;-56
2020/12/24 07:06:42;;;;;;;37.97;22.83;;;18.70;59.80;;;;;;5035885;28;20057;-56
2020/12/24 07:09:28;;;;;;;34.35;20.80;;;18.70;60.00;;;;;;5035927;28;20025;-55
2020/12/24 07:11:55;;;;;;;37.08;22.80;;;18.60;60.20;;;;;;5035067;28;20037;-56
2020/12/24 07:14:27;;;;;;;39.80;22.90;;;18.60;60.40;;;;;;5036340;28;20033;-56
2020/12/24 07:16:53;;;;;;;42.10;24.80;;;18.50;60.50;;;;;;5035841;28;20048;-56
2020/12/24 07:19:20;;;;;;;39.35;22.98;;;18.50;60.70;;;;;;5035550;28;20045;-56
2020/12/24 07:21:51;;;;;;;36.35;22.02;;;18.50;60.80;;;;;;5035343;28;20112;-55
2020/12/24 07:24:30;;;;;;;39.45;21.65;;;18.40;60.90;;;;;;5035419;28;20083;-55
2020/12/24 07:27:00;;;;;;;33.33;20.05;;;18.40;61.10;;;;;;5035483;28;20040;-55
2020/12/24 07:29:28;;;;;;;36.13;22.80;;;18.30;61.20;;;;;;5035391;28;20109;-56
2020/12/24 07:31:55;;;;;;;35.67;22.00;;;18.30;61.20;;;;;;5035305;28;20072;-55
2020/12/24 07:34:26;;;;;;;32.35;20.75;;;18.30;61.30;;;;;;5035069;28;20040;-55
2020/12/24 07:36:51;;;;;;;36.05;21.15;;;18.20;61.40;;;;;;5035048;28;20044;-55
2020/12/24 07:39:19;;;;;;;35.22;20.98;;;18.20;61.60;;;;;;5035721;28;20029;-56
2020/12/24 07:41:45;;;;;;;37.92;22.23;;;18.20;61.70;;;;;;5035041;28;20025;-52
2020/12/24 07:44:19;;;;;;;34.75;21.05;;;18.10;61.80;;;;;;5035193;28;20040;-55
2020/12/24 07:46:47;;;;;;;32.65;20.77;;;18.30;62.00;;;;;;5034979;28;20028;-55
2020/12/24 07:49:13;;;;;;;36.60;22.02;;;18.30;61.80;;;;;;5034677;28;20029;-55
2020/12/24 07:51:39;;;;;;;32.08;20.70;;;18.30;61.90;;;;;;5034965;28;20028;-55
2020/12/24 07:54:05;;;;;;;35.50;20.75;;;18.20;61.90;;;;;;5034757;28;20029;-55
2020/12/24 07:56:33;;;;;;;34.20;19.75;;;18.30;61.90;;;;;;5034750;28;20057;-56
2020/12/24 07:59:01;;;;;;;31.65;20.02;;;18.30;61.70;;;;;;5034800;28;20032;-53
2020/12/24 08:01:26;;;;;;;33.28;19.92;;;18.40;61.50;;;;;;5034864;28;20036;-55
2020/12/24 08:03:59;;;;;;;36.28;19.05;;;18.40;61.30;;;;;;5034659;28;20042;-56
2020/12/24 08:06:25;;;;;;;32.50;19.55;;;18.40;61.20;;;;;;5034652;28;20128;-56
2020/12/24 08:08:52;;;;;;;31.27;18.80;;;18.50;61.20;;;;;;5035081;28;20419;-54
2020/12/24 08:11:17;;;;;;;27.67;17.70;;;18.50;61.00;;;;;;5034723;28;20112;-56
2020/12/24 08:13:43;;;;;;;30.95;18.42;;;18.60;60.90;;;;;;5034496;28;20121;-55
2020/12/24 08:16:11;;;;;;;31.60;19.35;;;18.70;60.60;;;;;;5034623;28;20028;-57
2020/12/24 08:18:42;;;;;;;34.50;18.83;;;18.60;60.40;;;;;;5033924;28;20025;-56
2020/12/24 08:21:27;;;;;;;;;;;18.70;60.30;;;;;;5034944;28;20026;-55
2020/12/24 08:24:00;;;;;;;30.70;17.67;;;18.70;60.30;;;;;;5034264;28;19912;-56
2020/12/24 08:26:26;;;;;;;29.15;17.75;;;18.70;60.40;;;;;;5034470;28;20112;-56
2020/12/24 08:28:57;;;;;;;30.02;17.45;;;18.70;60.40;;;;;;5034168;28;20104;-55
2020/12/24 08:31:24;;;;;;;29.42;18.40;;;18.70;60.60;;;;;;5034615;28;20084;-56
2020/12/24 08:33:52;;;;;;;29.90;16.90;;;18.60;60.60;;;;;;5034004;28;20390;-55
2020/12/24 08:36:22;;;;;;;27.48;16.70;;;18.60;60.60;;;;;;5033905;28;20384;-56
2020/12/24 08:38:49;;;;;;;;;;;18.60;60.60;;;;;;5034581;28;20064;-55
2020/12/24 08:41:24;;;;;;;28.55;16.80;;;18.60;60.70;;;;;;5033745;28;20375;-55
2020/12/24 08:43:55;;;;;;;27.77;17.02;;;18.50;60.80;;;;;;5033774;28;20034;-56
2020/12/24 08:46:21;;;;;;;;;;;18.60;60.90;;;;;;5034371;28;20037;-53
2020/12/24 08:48:47;;;;;;;25.02;15.48;;;18.50;60.90;;;;;;5034005;28;19905;-55
2020/12/24 08:51:18;;;;;;;31.88;16.88;;;18.60;60.50;;;;;;5034064;28;20112;-56
2020/12/24 08:53:44;;;;;;;28.17;17.10;;;18.80;60.30;;;;;;5033561;28;20389;-53
2020/12/24 08:56:14;;;;;;;28.00;17.98;;;18.80;60.10;;;;;;5033875;28;20029;-56
2020/12/24 08:58:50;;;;;;;27.00;16.55;;;18.90;60.00;;;;;;5033848;28;20036;-55
2020/12/24 09:01:16;;;;;;;26.50;16.83;;;18.90;59.80;;;;;;5033941;28;20034;-56
2020/12/24 09:03:43;;;;;;;28.20;16.65;;;18.80;60.10;;;;;;5033693;28;20048;-55
2020/12/24 09:06:10;;;;;;;28.30;16.70;;;18.70;60.30;;;;;;5033645;28;20399;-56
2020/12/24 09:08:36;;;;;;;30.55;17.27;;;18.60;60.60;;;;;;5033928;28;20026;-56
2020/12/24 09:11:02;;;;;;;25.77;15.45;;;18.50;60.90;;;;;;5033809;28;20034;-56
2020/12/24 09:13:28;;;;;;;27.13;15.65;;;18.50;61.20;;;;;;5033748;28;20516;-56
2020/12/24 09:15:53;;;;;;;25.38;16.02;;;18.40;61.20;;;;;;5034111;28;20365;-53
2020/12/24 09:18:19;;;;;;;27.02;16.58;;;18.40;61.40;;;;;;5033469;28;20075;-53
2020/12/24 09:20:44;;;;;;;26.00;16.33;;;18.40;61.60;;;;;;5035179;28;20111;-53
2020/12/24 09:23:14;;;;;;;36.75;17.23;;;18.40;62.60;;;;;;5037582;28;20038;-57
2020/12/24 09:25:44;;;;;;;35.55;17.77;;;18.40;62.50;;;;;;5037909;28;20414;-52
2020/12/24 09:28:23;;;;;;;32.92;18.88;;;18.40;63.10;;;;;;5037801;28;20028;-56
2020/12/24 09:30:50;;;;;;;32.70;18.17;;;18.40;63.00;;;;;;5037420;28;20036;-60
2020/12/24 09:33:16;;;;;;;37.30;17.35;;;18.40;62.60;;;;;;5037286;28;20542;-59
2020/12/24 09:35:42;;;;;;;30.80;16.67;;;18.40;63.00;;;;;;5037614;28;20053;-62
2020/12/24 09:38:08;;;;;;;30.55;17.67;;;18.30;62.80;;;;;;5037708;28;20026;-61
2020/12/24 09:40:34;;;;;;;30.63;18.15;;;18.30;61.90;;;;;;5037499;28;20108;-61
2020/12/24 09:42:59;;;;;;;27.45;17.77;;;18.30;60.70;;;;;;5037326;28;20033;-62
2020/12/24 09:45:27;;;;;;;29.73;17.92;;;18.10;59.80;;;;;;5037484;28;20116;-63
2020/12/24 09:47:52;;;;;;;31.45;22.33;;;18.20;59.50;;;;;;5037233;28;20053;-61
2020/12/24 09:50:18;;;;;;;33.53;23.48;;;18.10;59.10;;;;;;5037465;28;20084;-60
2020/12/24 09:52:44;;;;;;;52.30;31.05;;;18.20;59.60;;;;;;5037219;28;20029;-66
2020/12/24 09:55:09;;;;;;;59.47;33.92;;;18.30;58.90;;;;;;5011422;28;20332;-59
2020/12/24 09:57:35;;;;;;;100.90;57.65;;;18.50;58.30;;;;;;5005984;28;20109;-59
2020/12/24 10:00:07;;;;;;;163.15;95.07;;;18.70;57.80;;;;;;4997334;28;20030;-58
2020/12/24 10:02:32;;;;;;;220.52;113.25;;;18.80;57.20;;;;;;4997588;28;20601;-57
2020/12/24 10:04:59;;;;;;;195.13;102.25;;;18.80;56.80;;;;;;4997501;28;20113;-58
2020/12/24 10:07:25;;;;;;;179.50;95.03;;;18.80;56.30;;;;;;4980123;28;20034;-58
2020/12/24 10:09:51;;;;;;;136.10;74.20;;;18.80;55.90;;;;;;4997403;28;20030;-57
2020/12/24 10:12:27;;;;;;;105.97;59.58;;;18.80;55.50;;;;;;4997156;28;20101;-51
2020/12/24 10:14:54;;;;;;;96.82;54.42;;;18.80;55.00;;;;;;4997304;28;20471;-57
2020/12/24 10:17:20;;;;;;;81.03;48.22;;;18.80;54.70;;;;;;4997741;28;20034;-59
2020/12/24 10:19:46;;;;;;;78.38;45.53;;;18.80;54.70;;;;;;4997405;28;20046;-57
2020/12/24 10:22:13;;;;;;;66.13;39.53;;;18.70;54.70;;;;;;4997134;28;20101;-53
2020/12/24 10:24:40;;;;;;;56.58;34.65;;;18.70;54.40;;;;;;4997092;28;20042;-52
2020/12/24 10:27:10;;;;;;;51.72;31.92;;;18.70;54.30;;;;;;4996777;28;20026;-58
2020/12/24 10:29:36;;;;;;;45.13;28.35;;;18.70;54.40;;;;;;4997020;28;20031;-57
2020/12/24 10:32:01;;;;;;;41.08;23.30;;;18.70;54.40;;;;;;4995951;28;20419;-56
2020/12/24 10:34:27;;;;;;;31.63;22.20;;;18.60;54.60;;;;;;4996993;28;20109;-58
2020/12/24 10:36:54;;;;;;;35.40;22.25;;;18.60;54.70;;;;;;4997152;28;20487;-59
2020/12/24 10:39:20;;;;;;;28.60;20.65;;;18.50;54.90;;;;;;4996934;28;20109;-55
2020/12/24 10:41:50;;;;;;;27.38;18.77;;;18.50;54.90;;;;;;4996949;28;20461;-55
2020/12/24 10:44:16;;;;;;;27.65;18.63;;;18.50;54.90;;;;;;4996805;28;20084;-55
2020/12/24 10:46:41;;;;;;;28.25;18.58;;;18.40;54.90;;;;;;4996923;28;20034;-55
2020/12/24 10:49:07;;;;;;;24.83;18.33;;;18.40;54.70;;;;;;4996882;28;20100;-52
2020/12/24 10:51:32;;;;;;;23.67;16.85;;;18.40;54.80;;;;;;4996703;28;20101;-55
2020/12/24 10:53:58;;;;;;;24.50;16.95;;;18.50;54.60;;;;;;4996646;28;20080;-55
2020/12/24 10:56:24;;;;;;;24.88;16.10;;;18.50;54.70;;;;;;4996681;28;20473;-52
2020/12/24 10:58:49;;;;;;;22.58;16.25;;;18.60;54.80;;;;;;4996309;28;20033;-51
2020/12/24 11:01:17;;;;;;;26.08;16.30;;;18.60;55.00;;;;;;4996460;28;20109;-51
2020/12/24 11:03:43;;;;;;;24.10;15.88;;;18.50;54.70;;;;;;4996488;28;20070;-52
2020/12/24 11:06:22;;;;;;;23.95;15.43;;;18.50;55.00;;;;;;4996450;28;20413;-52
2020/12/24 11:08:48;;;;;;;26.02;16.10;;;18.50;55.10;;;;;;4996383;28;20033;-51
2020/12/24 11:11:15;;;;;;;23.98;14.65;;;18.50;55.30;;;;;;4996050;28;20034;-54
2020/12/24 11:13:42;;;;;;;21.40;15.52;;;18.40;55.30;;;;;;4996368;28;20069;-51
2020/12/24 11:16:07;;;;;;;23.45;13.80;;;18.40;55.20;;;;;;4996303;28;20033;-50
2020/12/24 11:18:34;;;;;;;17.45;12.55;;;18.30;55.20;;;;;;4996032;28;20382;-56
2020/12/24 11:20:59;;;;;;;21.90;15.77;;;18.30;55.20;;;;;;4995898;28;20054;-56
2020/12/24 11:23:25;;;;;;;101.68;58.90;;;18.30;55.60;;;;;;4995844;28;20045;-59
2020/12/24 11:25:50;;;;;;;151.55;87.53;;;18.30;55.60;;;;;;4996031;28;20022;-57
2020/12/24 11:28:16;;;;;;;128.27;72.40;;;18.40;55.70;;;;;;4996027;28;20030;-58
2020/12/24 11:30:42;;;;;;;152.88;91.32;;;18.40;55.60;;;;;;4995887;28;20403;-57
2020/12/24 11:33:08;;;;;;;120.97;71.50;;;18.50;55.80;;;;;;4995820;28;20027;-59
2020/12/24 11:35:33;;;;;;;98.88;59.35;;;18.50;56.20;;;;;;4995964;28;20027;-58
2020/12/24 11:37:59;;;;;;;73.43;45.38;;;18.60;56.30;;;;;;4995559;28;20026;-61
2020/12/24 11:40:24;;;;;;;75.90;38.75;;;18.60;56.50;;;;;;4996011;28;20032;-59
2020/12/24 11:42:50;;;;;;;65.45;36.13;;;18.70;56.30;;;;;;4995224;28;20513;-60
2020/12/24 11:45:16;;;;;;;56.92;30.20;;;18.70;56.00;;;;;;4995691;28;20042;-59
2020/12/24 11:47:41;;;;;;;55.90;25.85;;;18.90;54.70;;;;;;4995673;28;20026;-61
2020/12/24 11:50:07;;;;;;;38.88;23.92;;;18.90;55.50;;;;;;4995672;28;20499;-60
2020/12/24 11:52:37;;;;;;;38.63;22.15;;;19.00;55.20;;;;;;4995431;28;20027;-56
2020/12/24 11:55:07;;;;;;;37.20;21.60;;;19.10;55.00;;;;;;4995625;28;20034;-58
2020/12/24 11:57:36;;;;;;;41.38;20.90;;;19.20;55.00;;;;;;4995682;28;20077;-61
2020/12/24 12:00:06;;;;;;;33.80;19.58;;;19.40;55.20;;;;;;4995266;28;20030;-60
2020/12/24 12:02:33;;;;;;;32.45;18.17;;;19.30;55.20;;;;;;4995417;28;20033;-61
2020/12/24 12:04:58;;;;;;;34.60;18.63;;;19.20;55.10;;;;;;4990253;28;20495;-60
2020/12/24 12:07:24;;;;;;;29.65;18.48;;;19.10;55.00;;;;;;5014162;28;20068;-60
2020/12/24 12:09:50;;;;;;;25.35;16.70;;;19.10;54.90;;;;;;4994870;28;20082;-60
2020/12/24 12:12:16;;;;;;;31.48;17.95;;;19.00;54.90;;;;;;5014804;28;20132;-60
2020/12/24 12:14:42;;;;;;;25.27;16.75;;;18.90;54.80;;;;;;5014772;28;20147;-60
2020/12/24 12:17:12;;;;;;;27.35;17.08;;;18.90;54.70;;;;;;5014041;28;20497;-60
2020/12/24 12:19:38;;;;;;;26.47;17.50;;;18.80;54.70;;;;;;5014031;28;20053;-60
2020/12/24 12:22:05;;;;;;;27.55;18.90;;;18.80;54.80;;;;;;5014328;28;20037;-60
2020/12/24 12:24:30;;;;;;;24.45;17.35;;;18.70;54.70;;;;;;5014089;28;20375;-60
2020/12/24 12:26:56;;;;;;;26.10;16.55;;;18.70;54.80;;;;;;5014481;28;20101;-60
2020/12/24 12:29:21;;;;;;;25.38;16.42;;;18.70;55.00;;;;;;5014211;28;20135;-60